sensor_id;sensor_type;location;lat;lon;timestamp;temperature;humidity
2391;DHT22;22957;50.824;4.360;2022-12-11T00:00:19;5.10;99.90
2391;DHT22;22957;50.824;4.360;2022-12-11T00:02:45;5.50;99.90
2391;DHT22;22957;50.824;4.360;2022-12-11T00:05:11;5.20;99.90
2391;DHT22;22957;50.824;4.360;2022-12-11T00:07:37;5.70;99.90
2391;DHT22;22957;50.824;4.360;2022-12-11T00:10:03;5.40;99.90
2391;DHT22;22957;50.824;4.360;2022-12-11T00:12:30;5.80;99.90
2391;DHT22;22957;50.824;4.360;2022-12-11T00:14:56;5.80;99.90
2391;DHT22;22957;50.824;4.360;2022-12-11T00:17:22;5.70;99.90
2391;DHT22;22957;50.824;4.360;2022-12-11T00:19:49;6.00;99.90
2391;DHT22;22957;50.824;4.360;2022-12-11T00:22:15;5.40;99.90
2391;DHT22;22957;50.824;4.360;2022-12-11T00:24:41;5.90;99.90
2391;DHT22;22957;50.824;4.360;2022-12-11T00:27:06;6.00;99.90
2391;DHT22;22957;50.824;4.360;2022-12-11T00:29:32;5.60;99.90
2391;DHT22;22957;50.824;4.360;2022-12-11T00:31:58;5.70;99.90
2391;DHT22;22957;50.824;4.360;2022-12-11T00:34:24;5.70;99.90
2391;DHT22;22957;50.824;4.360;2022-12-11T00:36:50;5.80;99.90
2391;DHT22;22957;50.824;4.360;2022-12-11T00:39:16;5.80;99.90
2391;DHT22;22957;50.824;4.360;2022-12-11T00:41:41;5.60;99.90
2391;DHT22;22957;50.824;4.360;2022-12-11T00:44:07;6.00;99.90
2391;DHT22;22957;50.824;4.360;2022-12-11T00:46:33;5.70;99.90
2391;DHT22;22957;50.824;4.360;2022-12-11T00:48:59;5.70;99.90
2391;DHT22;22957;50.824;4.360;2022-12-11T00:51:24;5.60;99.90
2391;DHT22;22957;50.824;4.360;2022-12-11T00:53:50;5.60;99.90
2391;DHT22;22957;50.824;4.360;2022-12-11T00:56:20;5.60;99.90
2391;DHT22;22957;50.824;4.360;2022-12-11T00:58:47;5.40;99.90
2391;DHT22;22957;50.824;4.360;2022-12-11T01:01:17;6.00;99.90
2391;DHT22;22957;50.824;4.360;2022-12-11T01:03:43;5.40;99.90
2391;DHT22;22957;50.824;4.360;2022-12-11T01:06:15;5.60;99.90
2391;DHT22;22957;50.824;4.360;2022-12-11T01:08:42;5.70;99.90
2391;DHT22;22957;50.824;4.360;2022-12-11T01:11:11;6.10;99.90
2391;DHT22;22957;50.824;4.360;2022-12-11T01:13:37;5.50;99.90
2391;DHT22;22957;50.824;4.360;2022-12-11T01:16:14;5.50;99.90
2391;DHT22;22957;50.824;4.360;2022-12-11T01:18:40;5.30;99.90
2391;DHT22;22957;50.824;4.360;2022-12-11T01:21:11;5.50;99.90
2391;DHT22;22957;50.824;4.360;2022-12-11T01:23:38;5.70;99.90
2391;DHT22;22957;50.824;4.360;2022-12-11T01:26:06;6.30;99.90
2391;DHT22;22957;50.824;4.360;2022-12-11T01:28:32;5.80;99.90
2391;DHT22;22957;50.824;4.360;2022-12-11T01:30:58;5.30;99.90
2391;DHT22;22957;50.824;4.360;2022-12-11T01:33:23;5.20;99.90
2391;DHT22;22957;50.824;4.360;2022-12-11T01:35:49;5.70;99.90
2391;DHT22;22957;50.824;4.360;2022-12-11T01:38:14;6.40;99.90
2391;DHT22;22957;50.824;4.360;2022-12-11T01:40:46;6.40;99.90
2391;DHT22;22957;50.824;4.360;2022-12-11T01:43:11;6.30;99.90
2391;DHT22;22957;50.824;4.360;2022-12-11T01:45:45;6.40;99.90
2391;DHT22;22957;50.824;4.360;2022-12-11T01:48:23;6.30;99.90
2391;DHT22;22957;50.824;4.360;2022-12-11T01:50:53;6.40;99.90
2391;DHT22;22957;50.824;4.360;2022-12-11T01:53:23;5.70;99.90
2391;DHT22;22957;50.824;4.360;2022-12-11T01:55:50;5.60;99.90
2391;DHT22;22957;50.824;4.360;2022-12-11T01:58:17;5.60;99.90
2391;DHT22;22957;50.824;4.360;2022-12-11T02:00:44;5.80;99.90
2391;DHT22;22957;50.824;4.360;2022-12-11T02:03:10;6.10;99.90
2391;DHT22;22957;50.824;4.360;2022-12-11T02:05:36;6.00;99.90
2391;DHT22;22957;50.824;4.360;2022-12-11T02:08:02;6.20;99.90
2391;DHT22;22957;50.824;4.360;2022-12-11T02:10:42;5.80;99.90
2391;DHT22;22957;50.824;4.360;2022-12-11T02:13:29;6.20;99.90
2391;DHT22;22957;50.824;4.360;2022-12-11T02:16:15;5.80;99.90
2391;DHT22;22957;50.824;4.360;2022-12-11T02:18:50;5.90;99.90
2391;DHT22;22957;50.824;4.360;2022-12-11T02:21:33;5.90;99.90
2391;DHT22;22957;50.824;4.360;2022-12-11T02:24:24;6.30;99.90
2391;DHT22;22957;50.824;4.360;2022-12-11T02:27:17;6.20;99.90
2391;DHT22;22957;50.824;4.360;2022-12-11T02:30:02;6.30;99.90
2391;DHT22;22957;50.824;4.360;2022-12-11T02:35:21;6.70;99.90
2391;DHT22;22957;50.824;4.360;2022-12-11T02:37:50;6.00;99.90
2391;DHT22;22957;50.824;4.360;2022-12-11T02:40:22;6.30;99.90
2391;DHT22;22957;50.824;4.360;2022-12-11T02:42:49;6.40;99.90
2391;DHT22;22957;50.824;4.360;2022-12-11T02:45:17;6.50;99.90
2391;DHT22;22957;50.824;4.360;2022-12-11T02:47:45;6.30;99.90
2391;DHT22;22957;50.824;4.360;2022-12-11T02:50:16;6.60;99.90
2391;DHT22;22957;50.824;4.360;2022-12-11T02:52:43;6.40;99.90
2391;DHT22;22957;50.824;4.360;2022-12-11T02:55:11;6.00;99.90
2391;DHT22;22957;50.824;4.360;2022-12-11T02:57:44;5.90;99.90
2391;DHT22;22957;50.824;4.360;2022-12-11T03:00:12;5.70;99.90
2391;DHT22;22957;50.824;4.360;2022-12-11T03:02:39;5.70;99.90
2391;DHT22;22957;50.824;4.360;2022-12-11T03:05:05;5.70;99.90
2391;DHT22;22957;50.824;4.360;2022-12-11T03:07:35;5.60;99.90
2391;DHT22;22957;50.824;4.360;2022-12-11T03:10:03;5.80;99.90
2391;DHT22;22957;50.824;4.360;2022-12-11T03:12:32;5.70;99.90
2391;DHT22;22957;50.824;4.360;2022-12-11T03:15:02;5.70;99.90
2391;DHT22;22957;50.824;4.360;2022-12-11T03:17:37;5.70;99.90
2391;DHT22;22957;50.824;4.360;2022-12-11T03:25:56;5.90;99.90
2391;DHT22;22957;50.824;4.360;2022-12-11T03:28:33;5.70;99.90
2391;DHT22;22957;50.824;4.360;2022-12-11T03:31:08;5.30;99.90
2391;DHT22;22957;50.824;4.360;2022-12-11T03:33:37;6.00;99.90
2391;DHT22;22957;50.824;4.360;2022-12-11T03:36:08;6.10;99.90
2391;DHT22;22957;50.824;4.360;2022-12-11T03:38:53;6.10;99.90
2391;DHT22;22957;50.824;4.360;2022-12-11T03:41:23;6.10;99.90
2391;DHT22;22957;50.824;4.360;2022-12-11T03:43:50;6.00;99.90
2391;DHT22;22957;50.824;4.360;2022-12-11T03:46:19;5.90;99.90
2391;DHT22;22957;50.824;4.360;2022-12-11T03:48:47;6.30;99.90
2391;DHT22;22957;50.824;4.360;2022-12-11T03:51:15;6.00;99.90
2391;DHT22;22957;50.824;4.360;2022-12-11T03:53:42;5.60;99.90
2391;DHT22;22957;50.824;4.360;2022-12-11T03:56:11;5.90;99.90
2391;DHT22;22957;50.824;4.360;2022-12-11T03:58:37;5.60;99.90
2391;DHT22;22957;50.824;4.360;2022-12-11T04:01:08;5.60;99.90
2391;DHT22;22957;50.824;4.360;2022-12-11T04:03:34;5.90;99.90
2391;DHT22;22957;50.824;4.360;2022-12-11T04:06:00;6.10;99.90
2391;DHT22;22957;50.824;4.360;2022-12-11T04:08:26;5.90;99.90
2391;DHT22;22957;50.824;4.360;2022-12-11T04:10:52;5.70;99.90
2391;DHT22;22957;50.824;4.360;2022-12-11T04:13:38;5.60;99.90
2391;DHT22;22957;50.824;4.360;2022-12-11T04:16:04;5.40;99.90
2391;DHT22;22957;50.824;4.360;2022-12-11T04:18:29;5.50;99.90
2391;DHT22;22957;50.824;4.360;2022-12-11T04:21:14;5.60;99.90
2391;DHT22;22957;50.824;4.360;2022-12-11T04:23:58;5.60;99.90
2391;DHT22;22957;50.824;4.360;2022-12-11T04:26:44;6.00;99.90
2391;DHT22;22957;50.824;4.360;2022-12-11T04:29:10;5.60;99.90
2391;DHT22;22957;50.824;4.360;2022-12-11T04:31:36;5.80;99.90
2391;DHT22;22957;50.824;4.360;2022-12-11T04:34:02;6.00;99.90
2391;DHT22;22957;50.824;4.360;2022-12-11T04:36:27;5.90;99.90
2391;DHT22;22957;50.824;4.360;2022-12-11T04:38:53;6.10;99.90
2391;DHT22;22957;50.824;4.360;2022-12-11T04:41:19;5.60;99.90
2391;DHT22;22957;50.824;4.360;2022-12-11T04:43:44;6.20;99.90
2391;DHT22;22957;50.824;4.360;2022-12-11T04:46:16;5.70;99.90
2391;DHT22;22957;50.824;4.360;2022-12-11T04:48:42;5.70;99.90
2391;DHT22;22957;50.824;4.360;2022-12-11T04:51:09;5.70;99.90
2391;DHT22;22957;50.824;4.360;2022-12-11T04:53:35;5.70;99.90
2391;DHT22;22957;50.824;4.360;2022-12-11T04:56:04;6.00;99.90
2391;DHT22;22957;50.824;4.360;2022-12-11T04:58:30;6.30;99.90
2391;DHT22;22957;50.824;4.360;2022-12-11T05:00:56;6.30;99.90
2391;DHT22;22957;50.824;4.360;2022-12-11T05:03:21;5.80;99.90
2391;DHT22;22957;50.824;4.360;2022-12-11T05:05:51;5.60;99.90
2391;DHT22;22957;50.824;4.360;2022-12-11T05:08:20;5.90;99.90
2391;DHT22;22957;50.824;4.360;2022-12-11T05:11:01;6.10;99.90
2391;DHT22;22957;50.824;4.360;2022-12-11T05:13:28;6.10;99.90
2391;DHT22;22957;50.824;4.360;2022-12-11T05:15:54;5.90;99.90
2391;DHT22;22957;50.824;4.360;2022-12-11T05:18:20;5.90;99.90
2391;DHT22;22957;50.824;4.360;2022-12-11T05:20:55;5.90;99.90
2391;DHT22;22957;50.824;4.360;2022-12-11T05:23:21;5.70;99.90
2391;DHT22;22957;50.824;4.360;2022-12-11T05:25:58;5.90;99.90
2391;DHT22;22957;50.824;4.360;2022-12-11T05:28:26;6.20;99.90
2391;DHT22;22957;50.824;4.360;2022-12-11T05:31:13;5.60;99.90
2391;DHT22;22957;50.824;4.360;2022-12-11T05:33:39;6.00;99.90
2391;DHT22;22957;50.824;4.360;2022-12-11T05:36:05;5.60;99.90
2391;DHT22;22957;50.824;4.360;2022-12-11T05:38:31;5.60;99.90
2391;DHT22;22957;50.824;4.360;2022-12-11T05:41:03;5.60;99.90
2391;DHT22;22957;50.824;4.360;2022-12-11T05:43:31;5.80;99.90
2391;DHT22;22957;50.824;4.360;2022-12-11T05:46:25;6.00;99.90
2391;DHT22;22957;50.824;4.360;2022-12-11T05:48:53;6.30;99.90
2391;DHT22;22957;50.824;4.360;2022-12-11T05:51:20;5.80;99.90
2391;DHT22;22957;50.824;4.360;2022-12-11T05:53:47;6.00;99.90
2391;DHT22;22957;50.824;4.360;2022-12-11T05:56:17;6.00;99.90
2391;DHT22;22957;50.824;4.360;2022-12-11T05:58:45;5.90;99.90
2391;DHT22;22957;50.824;4.360;2022-12-11T06:01:14;5.60;99.90
2391;DHT22;22957;50.824;4.360;2022-12-11T06:03:40;5.90;99.90
2391;DHT22;22957;50.824;4.360;2022-12-11T06:06:06;5.80;99.90
2391;DHT22;22957;50.824;4.360;2022-12-11T06:08:33;5.90;99.90
2391;DHT22;22957;50.824;4.360;2022-12-11T06:10:59;5.50;99.90
2391;DHT22;22957;50.824;4.360;2022-12-11T06:13:25;5.40;99.90
2391;DHT22;22957;50.824;4.360;2022-12-11T06:15:51;5.70;99.90
2391;DHT22;22957;50.824;4.360;2022-12-11T06:18:17;5.60;99.90
2391;DHT22;22957;50.824;4.360;2022-12-11T06:20:43;5.70;99.90
2391;DHT22;22957;50.824;4.360;2022-12-11T06:23:10;5.60;99.90
2391;DHT22;22957;50.824;4.360;2022-12-11T06:25:39;6.10;99.90
2391;DHT22;22957;50.824;4.360;2022-12-11T06:28:05;5.70;99.90
2391;DHT22;22957;50.824;4.360;2022-12-11T06:30:31;5.40;99.90
2391;DHT22;22957;50.824;4.360;2022-12-11T06:32:57;5.30;99.90
2391;DHT22;22957;50.824;4.360;2022-12-11T06:35:24;5.20;99.90
2391;DHT22;22957;50.824;4.360;2022-12-11T06:37:49;5.30;99.90
2391;DHT22;22957;50.824;4.360;2022-12-11T06:40:15;5.30;99.90
2391;DHT22;22957;50.824;4.360;2022-12-11T06:42:41;5.30;99.90
2391;DHT22;22957;50.824;4.360;2022-12-11T06:45:07;5.60;99.90
2391;DHT22;22957;50.824;4.360;2022-12-11T06:47:33;5.40;99.90
2391;DHT22;22957;50.824;4.360;2022-12-11T06:49:59;5.10;99.90
2391;DHT22;22957;50.824;4.360;2022-12-11T06:52:25;5.00;99.90
2391;DHT22;22957;50.824;4.360;2022-12-11T06:54:54;5.10;99.90
2391;DHT22;22957;50.824;4.360;2022-12-11T06:57:21;5.30;99.90
2391;DHT22;22957;50.824;4.360;2022-12-11T06:59:47;5.10;99.90
2391;DHT22;22957;50.824;4.360;2022-12-11T07:02:17;5.10;99.90
2391;DHT22;22957;50.824;4.360;2022-12-11T07:04:43;5.60;99.90
2391;DHT22;22957;50.824;4.360;2022-12-11T07:07:10;5.40;99.90
2391;DHT22;22957;50.824;4.360;2022-12-11T07:09:38;5.40;99.90
2391;DHT22;22957;50.824;4.360;2022-12-11T07:12:04;5.30;99.90
2391;DHT22;22957;50.824;4.360;2022-12-11T07:14:31;5.40;99.90
2391;DHT22;22957;50.824;4.360;2022-12-11T07:16:57;5.10;99.90
2391;DHT22;22957;50.824;4.360;2022-12-11T07:19:23;5.20;99.90
2391;DHT22;22957;50.824;4.360;2022-12-11T07:21:49;5.70;99.90
2391;DHT22;22957;50.824;4.360;2022-12-11T07:24:15;5.70;99.90
2391;DHT22;22957;50.824;4.360;2022-12-11T07:26:40;5.90;99.90
2391;DHT22;22957;50.824;4.360;2022-12-11T07:29:06;5.30;99.90
2391;DHT22;22957;50.824;4.360;2022-12-11T07:31:33;5.30;99.90
2391;DHT22;22957;50.824;4.360;2022-12-11T07:34:02;5.60;99.90
2391;DHT22;22957;50.824;4.360;2022-12-11T07:36:28;5.60;99.90
2391;DHT22;22957;50.824;4.360;2022-12-11T07:38:55;6.00;99.90
2391;DHT22;22957;50.824;4.360;2022-12-11T07:41:21;5.60;99.90
2391;DHT22;22957;50.824;4.360;2022-12-11T07:43:48;5.60;99.90
2391;DHT22;22957;50.824;4.360;2022-12-11T07:46:17;5.80;99.90
2391;DHT22;22957;50.824;4.360;2022-12-11T07:48:45;5.50;99.90
2391;DHT22;22957;50.824;4.360;2022-12-11T07:51:13;5.50;99.90
2391;DHT22;22957;50.824;4.360;2022-12-11T07:53:41;5.60;99.90
2391;DHT22;22957;50.824;4.360;2022-12-11T07:56:07;5.40;99.90
2391;DHT22;22957;50.824;4.360;2022-12-11T07:58:33;5.80;99.90
2391;DHT22;22957;50.824;4.360;2022-12-11T08:00:59;5.60;99.90
2391;DHT22;22957;50.824;4.360;2022-12-11T08:03:25;5.10;99.90
2391;DHT22;22957;50.824;4.360;2022-12-11T08:05:51;5.60;99.90
2391;DHT22;22957;50.824;4.360;2022-12-11T08:08:18;6.20;99.90
2391;DHT22;22957;50.824;4.360;2022-12-11T08:10:44;5.60;99.90
2391;DHT22;22957;50.824;4.360;2022-12-11T08:13:10;5.20;99.90
2391;DHT22;22957;50.824;4.360;2022-12-11T08:15:36;5.50;99.90
2391;DHT22;22957;50.824;4.360;2022-12-11T08:18:03;5.00;99.90
2391;DHT22;22957;50.824;4.360;2022-12-11T08:20:29;5.40;99.90
2391;DHT22;22957;50.824;4.360;2022-12-11T08:22:55;6.10;99.90
2391;DHT22;22957;50.824;4.360;2022-12-11T08:25:22;6.10;99.90
2391;DHT22;22957;50.824;4.360;2022-12-11T08:27:48;5.60;99.90
2391;DHT22;22957;50.824;4.360;2022-12-11T08:30:14;5.60;99.90
2391;DHT22;22957;50.824;4.360;2022-12-11T08:32:40;5.60;99.90
2391;DHT22;22957;50.824;4.360;2022-12-11T08:35:07;5.30;99.90
2391;DHT22;22957;50.824;4.360;2022-12-11T08:37:33;5.40;99.90
2391;DHT22;22957;50.824;4.360;2022-12-11T08:39:59;5.50;99.90
2391;DHT22;22957;50.824;4.360;2022-12-11T08:42:24;5.00;99.90
2391;DHT22;22957;50.824;4.360;2022-12-11T08:44:50;5.10;99.90
2391;DHT22;22957;50.824;4.360;2022-12-11T08:47:16;5.50;99.90
2391;DHT22;22957;50.824;4.360;2022-12-11T08:49:43;5.50;99.90
2391;DHT22;22957;50.824;4.360;2022-12-11T08:52:09;5.90;99.90
2391;DHT22;22957;50.824;4.360;2022-12-11T08:54:38;5.30;99.90
2391;DHT22;22957;50.824;4.360;2022-12-11T08:57:05;5.90;99.90
2391;DHT22;22957;50.824;4.360;2022-12-11T08:59:31;5.50;99.90
2391;DHT22;22957;50.824;4.360;2022-12-11T09:01:57;5.70;99.90
2391;DHT22;22957;50.824;4.360;2022-12-11T09:04:23;5.30;99.90
2391;DHT22;22957;50.824;4.360;2022-12-11T09:06:49;5.50;99.90
2391;DHT22;22957;50.824;4.360;2022-12-11T09:09:14;5.40;99.90
2391;DHT22;22957;50.824;4.360;2022-12-11T09:11:41;5.80;99.90
2391;DHT22;22957;50.824;4.360;2022-12-11T09:14:06;5.90;99.90
2391;DHT22;22957;50.824;4.360;2022-12-11T09:16:33;5.60;99.90
2391;DHT22;22957;50.824;4.360;2022-12-11T09:18:59;5.80;99.90
2391;DHT22;22957;50.824;4.360;2022-12-11T09:21:29;5.30;99.90
2391;DHT22;22957;50.824;4.360;2022-12-11T09:23:58;5.70;99.90
2391;DHT22;22957;50.824;4.360;2022-12-11T09:26:24;5.70;99.90
2391;DHT22;22957;50.824;4.360;2022-12-11T09:28:51;6.10;99.90
2391;DHT22;22957;50.824;4.360;2022-12-11T09:31:29;5.30;99.90
2391;DHT22;22957;50.824;4.360;2022-12-11T09:34:04;5.70;99.90
2391;DHT22;22957;50.824;4.360;2022-12-11T09:36:30;5.60;99.90
2391;DHT22;22957;50.824;4.360;2022-12-11T09:38:59;5.80;99.90
2391;DHT22;22957;50.824;4.360;2022-12-11T09:41:48;5.90;99.90
2391;DHT22;22957;50.824;4.360;2022-12-11T09:47:35;6.00;99.90
2391;DHT22;22957;50.824;4.360;2022-12-11T09:50:14;5.60;99.90
2391;DHT22;22957;50.824;4.360;2022-12-11T09:55:21;6.30;99.90
2391;DHT22;22957;50.824;4.360;2022-12-11T09:58:23;6.60;99.90
2391;DHT22;22957;50.824;4.360;2022-12-11T10:00:57;6.60;99.90
2391;DHT22;22957;50.824;4.360;2022-12-11T10:17:51;7.20;99.90
2391;DHT22;22957;50.824;4.360;2022-12-11T10:20:28;7.00;99.90
2391;DHT22;22957;50.824;4.360;2022-12-11T10:23:00;7.60;99.90
2391;DHT22;22957;50.824;4.360;2022-12-11T10:25:43;6.60;99.90
2391;DHT22;22957;50.824;4.360;2022-12-11T10:28:12;6.40;99.90
2391;DHT22;22957;50.824;4.360;2022-12-11T10:36:19;6.50;99.90
2391;DHT22;22957;50.824;4.360;2022-12-11T10:38:47;6.10;99.90
2391;DHT22;22957;50.824;4.360;2022-12-11T10:41:20;6.90;99.90
2391;DHT22;22957;50.824;4.360;2022-12-11T10:43:51;6.80;99.90
2391;DHT22;22957;50.824;4.360;2022-12-11T10:46:37;6.30;99.90
2391;DHT22;22957;50.824;4.360;2022-12-11T10:49:03;6.30;99.90
2391;DHT22;22957;50.824;4.360;2022-12-11T10:54:17;6.30;99.90
2391;DHT22;22957;50.824;4.360;2022-12-11T10:56:51;6.90;99.90
2391;DHT22;22957;50.824;4.360;2022-12-11T10:59:47;7.40;99.90
2391;DHT22;22957;50.824;4.360;2022-12-11T11:02:29;7.20;99.90
2391;DHT22;22957;50.824;4.360;2022-12-11T11:05:02;7.60;99.90
2391;DHT22;22957;50.824;4.360;2022-12-11T11:07:35;7.90;99.90
2391;DHT22;22957;50.824;4.360;2022-12-11T11:12:44;8.50;99.90
2391;DHT22;22957;50.824;4.360;2022-12-11T11:15:42;9.20;99.90
2391;DHT22;22957;50.824;4.360;2022-12-11T11:18:36;9.20;99.90
2391;DHT22;22957;50.824;4.360;2022-12-11T11:21:19;9.90;99.90
2391;DHT22;22957;50.824;4.360;2022-12-11T11:23:46;9.60;99.90
2391;DHT22;22957;50.824;4.360;2022-12-11T11:26:12;10.00;99.90
2391;DHT22;22957;50.824;4.360;2022-12-11T11:28:47;9.70;99.90
2391;DHT22;22957;50.824;4.360;2022-12-11T11:31:15;9.50;99.90
2391;DHT22;22957;50.824;4.360;2022-12-11T11:33:57;9.30;99.90
2391;DHT22;22957;50.824;4.360;2022-12-11T11:36:29;8.80;99.90
2391;DHT22;22957;50.824;4.360;2022-12-11T11:41:35;9.10;99.90
2391;DHT22;22957;50.824;4.360;2022-12-11T11:44:05;9.00;99.90
2391;DHT22;22957;50.824;4.360;2022-12-11T11:46:36;9.60;99.90
2391;DHT22;22957;50.824;4.360;2022-12-11T11:49:31;7.90;99.90
2391;DHT22;22957;50.824;4.360;2022-12-11T11:55:17;7.80;99.90
2391;DHT22;22957;50.824;4.360;2022-12-11T11:58:05;8.20;99.90
2391;DHT22;22957;50.824;4.360;2022-12-11T12:00:32;8.20;99.90
2391;DHT22;22957;50.824;4.360;2022-12-11T12:03:11;8.10;99.90
2391;DHT22;22957;50.824;4.360;2022-12-11T12:11:36;7.60;99.90
2391;DHT22;22957;50.824;4.360;2022-12-11T12:14:24;7.70;99.90
2391;DHT22;22957;50.824;4.360;2022-12-11T12:20:54;7.60;99.90
2391;DHT22;22957;50.824;4.360;2022-12-11T12:23:58;7.80;99.90
2391;DHT22;22957;50.824;4.360;2022-12-11T12:26:43;8.00;99.90
2391;DHT22;22957;50.824;4.360;2022-12-11T12:32:27;7.70;99.90
2391;DHT22;22957;50.824;4.360;2022-12-11T12:35:37;7.70;99.90
2391;DHT22;22957;50.824;4.360;2022-12-11T12:38:15;7.30;99.90
2391;DHT22;22957;50.824;4.360;2022-12-11T12:49:39;7.20;99.90
2391;DHT22;22957;50.824;4.360;2022-12-11T12:54:35;7.40;99.90
2391;DHT22;22957;50.824;4.360;2022-12-11T12:57:07;7.00;99.90
2391;DHT22;22957;50.824;4.360;2022-12-11T12:59:34;7.60;99.90
2391;DHT22;22957;50.824;4.360;2022-12-11T13:02:01;7.70;99.90
2391;DHT22;22957;50.824;4.360;2022-12-11T13:07:22;7.20;99.90
2391;DHT22;22957;50.824;4.360;2022-12-11T13:10:24;7.20;99.90
2391;DHT22;22957;50.824;4.360;2022-12-11T13:12:51;7.30;99.90
2391;DHT22;22957;50.824;4.360;2022-12-11T13:17:57;7.20;99.90
2391;DHT22;22957;50.824;4.360;2022-12-11T13:20:44;7.30;99.90
2391;DHT22;22957;50.824;4.360;2022-12-11T13:23:38;7.10;99.90
2391;DHT22;22957;50.824;4.360;2022-12-11T13:26:09;6.70;99.90
2391;DHT22;22957;50.824;4.360;2022-12-11T13:31:54;7.00;99.90
2391;DHT22;22957;50.824;4.360;2022-12-11T13:34:39;7.10;99.90
2391;DHT22;22957;50.824;4.360;2022-12-11T13:37:39;6.40;99.90
2391;DHT22;22957;50.824;4.360;2022-12-11T13:40:19;6.00;99.90
2391;DHT22;22957;50.824;4.360;2022-12-11T13:46:18;5.50;99.90
2391;DHT22;22957;50.824;4.360;2022-12-11T13:48:58;5.60;99.90
2391;DHT22;22957;50.824;4.360;2022-12-11T13:51:39;5.70;99.90
2391;DHT22;22957;50.824;4.360;2022-12-11T13:54:18;5.60;99.90
2391;DHT22;22957;50.824;4.360;2022-12-11T13:59:57;5.70;99.90
2391;DHT22;22957;50.824;4.360;2022-12-11T14:02:36;5.80;99.90
2391;DHT22;22957;50.824;4.360;2022-12-11T14:05:11;5.50;99.90
2391;DHT22;22957;50.824;4.360;2022-12-11T14:08:03;5.60;99.90
2391;DHT22;22957;50.824;4.360;2022-12-11T14:10:32;5.70;99.90
2391;DHT22;22957;50.824;4.360;2022-12-11T14:13:26;5.60;99.90
2391;DHT22;22957;50.824;4.360;2022-12-11T14:15:56;6.10;99.90
2391;DHT22;22957;50.824;4.360;2022-12-11T14:18:26;6.40;99.90
2391;DHT22;22957;50.824;4.360;2022-12-11T14:21:02;6.20;99.90
2391;DHT22;22957;50.824;4.360;2022-12-11T14:23:54;6.30;99.90
2391;DHT22;22957;50.824;4.360;2022-12-11T14:26:25;6.00;99.90
2391;DHT22;22957;50.824;4.360;2022-12-11T14:29:33;6.30;99.90
2391;DHT22;22957;50.824;4.360;2022-12-11T14:35:01;5.70;99.90
2391;DHT22;22957;50.824;4.360;2022-12-11T14:37:39;5.60;99.90
2391;DHT22;22957;50.824;4.360;2022-12-11T14:40:25;5.90;99.90
2391;DHT22;22957;50.824;4.360;2022-12-11T14:42:59;6.20;99.90
2391;DHT22;22957;50.824;4.360;2022-12-11T14:47:59;6.30;99.90
2391;DHT22;22957;50.824;4.360;2022-12-11T14:50:37;6.50;99.90
2391;DHT22;22957;50.824;4.360;2022-12-11T14:53:40;6.60;99.90
2391;DHT22;22957;50.824;4.360;2022-12-11T14:56:20;6.60;99.90
2391;DHT22;22957;50.824;4.360;2022-12-11T15:02:33;6.60;99.90
2391;DHT22;22957;50.824;4.360;2022-12-11T15:05:19;6.20;99.90
2391;DHT22;22957;50.824;4.360;2022-12-11T15:10:42;6.60;99.90
2391;DHT22;22957;50.824;4.360;2022-12-11T15:13:22;6.40;99.90
2391;DHT22;22957;50.824;4.360;2022-12-11T15:15:49;6.70;99.90
2391;DHT22;22957;50.824;4.360;2022-12-11T15:18:32;6.60;99.90
2391;DHT22;22957;50.824;4.360;2022-12-11T15:21:01;6.20;99.90
2391;DHT22;22957;50.824;4.360;2022-12-11T15:23:29;6.60;99.90
2391;DHT22;22957;50.824;4.360;2022-12-11T15:26:07;6.30;99.90
2391;DHT22;22957;50.824;4.360;2022-12-11T15:28:37;6.10;99.90
2391;DHT22;22957;50.824;4.360;2022-12-11T15:31:07;6.30;99.90
2391;DHT22;22957;50.824;4.360;2022-12-11T15:33:45;6.50;99.90
2391;DHT22;22957;50.824;4.360;2022-12-11T15:36:32;6.60;99.90
2391;DHT22;22957;50.824;4.360;2022-12-11T15:39:00;6.60;99.90
2391;DHT22;22957;50.824;4.360;2022-12-11T15:41:26;6.70;99.90
2391;DHT22;22957;50.824;4.360;2022-12-11T15:44:00;6.20;99.90
2391;DHT22;22957;50.824;4.360;2022-12-11T15:46:27;6.40;99.90
2391;DHT22;22957;50.824;4.360;2022-12-11T15:48:56;6.30;99.90
2391;DHT22;22957;50.824;4.360;2022-12-11T15:51:22;6.50;99.90
2391;DHT22;22957;50.824;4.360;2022-12-11T15:53:49;5.80;99.90
2391;DHT22;22957;50.824;4.360;2022-12-11T15:56:15;6.30;99.90
2391;DHT22;22957;50.824;4.360;2022-12-11T15:58:48;6.10;99.90
2391;DHT22;22957;50.824;4.360;2022-12-11T16:01:15;6.10;99.90
2391;DHT22;22957;50.824;4.360;2022-12-11T16:03:41;6.80;99.90
2391;DHT22;22957;50.824;4.360;2022-12-11T16:06:11;6.60;99.90
2391;DHT22;22957;50.824;4.360;2022-12-11T16:08:38;6.60;99.90
2391;DHT22;22957;50.824;4.360;2022-12-11T16:11:04;6.90;99.90
2391;DHT22;22957;50.824;4.360;2022-12-11T16:13:30;6.50;99.90
2391;DHT22;22957;50.824;4.360;2022-12-11T16:15:58;6.30;99.90
2391;DHT22;22957;50.824;4.360;2022-12-11T16:18:24;6.20;99.90
2391;DHT22;22957;50.824;4.360;2022-12-11T16:20:51;6.60;99.90
2391;DHT22;22957;50.824;4.360;2022-12-11T16:23:17;6.70;99.90
2391;DHT22;22957;50.824;4.360;2022-12-11T16:25:45;6.70;99.90
2391;DHT22;22957;50.824;4.360;2022-12-11T16:30:56;6.90;99.90
2391;DHT22;22957;50.824;4.360;2022-12-11T16:33:22;6.50;99.90
2391;DHT22;22957;50.824;4.360;2022-12-11T16:35:49;6.50;99.90
2391;DHT22;22957;50.824;4.360;2022-12-11T16:38:19;6.40;99.90
2391;DHT22;22957;50.824;4.360;2022-12-11T16:40:47;6.40;99.90
2391;DHT22;22957;50.824;4.360;2022-12-11T16:43:13;6.30;99.90
2391;DHT22;22957;50.824;4.360;2022-12-11T16:45:42;6.00;99.90
2391;DHT22;22957;50.824;4.360;2022-12-11T16:48:08;6.10;99.90
2391;DHT22;22957;50.824;4.360;2022-12-11T16:50:39;5.70;99.90
2391;DHT22;22957;50.824;4.360;2022-12-11T16:53:05;6.00;99.90
2391;DHT22;22957;50.824;4.360;2022-12-11T16:55:32;6.30;99.90
2391;DHT22;22957;50.824;4.360;2022-12-11T16:58:01;6.30;99.90
2391;DHT22;22957;50.824;4.360;2022-12-11T17:00:30;6.50;99.90
2391;DHT22;22957;50.824;4.360;2022-12-11T17:02:56;6.40;99.90
2391;DHT22;22957;50.824;4.360;2022-12-11T17:05:22;6.50;99.90
2391;DHT22;22957;50.824;4.360;2022-12-11T17:07:48;6.70;99.90
2391;DHT22;22957;50.824;4.360;2022-12-11T17:10:14;6.70;99.90
2391;DHT22;22957;50.824;4.360;2022-12-11T17:12:40;6.20;99.90
2391;DHT22;22957;50.824;4.360;2022-12-11T17:15:10;6.00;99.90
2391;DHT22;22957;50.824;4.360;2022-12-11T17:17:37;6.00;99.90
2391;DHT22;22957;50.824;4.360;2022-12-11T17:20:05;6.20;99.90
2391;DHT22;22957;50.824;4.360;2022-12-11T17:22:55;6.10;99.90
2391;DHT22;22957;50.824;4.360;2022-12-11T17:25:21;6.40;99.90
2391;DHT22;22957;50.824;4.360;2022-12-11T17:27:47;6.10;99.90
2391;DHT22;22957;50.824;4.360;2022-12-11T17:30:13;5.90;99.90
2391;DHT22;22957;50.824;4.360;2022-12-11T17:32:47;5.80;99.90
2391;DHT22;22957;50.824;4.360;2022-12-11T17:35:15;5.50;99.90
2391;DHT22;22957;50.824;4.360;2022-12-11T17:37:41;5.40;99.90
2391;DHT22;22957;50.824;4.360;2022-12-11T17:40:15;5.40;99.90
2391;DHT22;22957;50.824;4.360;2022-12-11T17:42:44;5.40;99.90
2391;DHT22;22957;50.824;4.360;2022-12-11T17:45:10;5.00;99.90
2391;DHT22;22957;50.824;4.360;2022-12-11T17:47:36;5.00;99.90
2391;DHT22;22957;50.824;4.360;2022-12-11T17:50:05;5.30;99.90
2391;DHT22;22957;50.824;4.360;2022-12-11T17:52:31;4.80;99.90
2391;DHT22;22957;50.824;4.360;2022-12-11T17:54:57;4.80;99.90
2391;DHT22;22957;50.824;4.360;2022-12-11T17:57:23;5.10;99.90
2391;DHT22;22957;50.824;4.360;2022-12-11T17:59:49;5.00;99.90
2391;DHT22;22957;50.824;4.360;2022-12-11T18:02:14;4.90;99.90
2391;DHT22;22957;50.824;4.360;2022-12-11T18:04:40;4.70;99.90